Time,TemperatureF,DewpointF,PressureIn,WindDirection,WindDirectionDegrees,WindSpeedMPH,WindSpeedGustMPH,Humidity,HourlyPrecipIn,Conditions,Clouds,dailyrainin,SolarRadiationWatts/m^2,SoftwareType,DateUTC
2013-02-28 00:01:00,14.0,12.0,-100.00,South,188,2.0,6.0,91,0.00,,,0.00,0.000000,,2013-02-28 07:01:00,
2013-02-28 00:22:00,14.0,13.0,-100.00,SSW,192,1.0,5.0,94,0.00,,,0.00,0.000000,,2013-02-28 07:22:00,
2013-02-28 00:32:00,14.0,13.0,-100.00,SSW,192,1.0,5.0,94,0.00,,,0.00,0.000000,,2013-02-28 07:32:00,
2013-02-28 00:42:00,14.0,13.0,-100.00,SSW,192,1.0,5.0,94,0.00,,,0.00,0.000000,,2013-02-28 07:42:00,
2013-02-28 00:52:00,14.0,13.0,-100.00,SSW,192,1.0,5.0,94,0.00,,,0.00,0.000000,,2013-02-28 07:52:00,
2013-02-28 01:01:00,14.0,13.0,-100.00,SSW,192,1.0,5.0,94,0.00,,,0.00,0.000000,,2013-02-28 08:01:00,
2013-02-28 01:32:00,15.0,13.0,-100.00,ENE,75,1.0,5.0,92,-99.99,,,0.00,0.000000,,2013-02-28 08:32:00,
2013-02-28 01:42:00,15.0,13.0,-100.00,ENE,75,1.0,5.0,92,-99.99,,,0.00,0.000000,,2013-02-28 08:42:00,
2013-02-28 01:53:00,15.0,13.0,-100.00,ENE,75,1.0,5.0,92,-99.99,,,0.00,0.000000,,2013-02-28 08:53:00,
2013-02-28 02:02:00,15.0,13.0,-100.00,ENE,75,1.0,5.0,92,-99.99,,,0.00,0.000000,,2013-02-28 09:02:00,
2013-02-28 02:32:00,15.0,14.0,-100.00,SSW,194,1.0,4.0,94,-99.99,,,0.00,0.000000,,2013-02-28 09:32:00,
2013-02-28 02:42:00,15.0,14.0,-100.00,SSW,194,1.0,4.0,94,-99.99,,,0.00,0.000000,,2013-02-28 09:42:00,
2013-02-28 02:52:00,15.0,14.0,-100.00,SSW,194,1.0,4.0,94,-99.99,,,0.00,0.000000,,2013-02-28 09:52:00,
2013-02-28 03:01:00,15.0,14.0,-100.00,SSW,194,1.0,4.0,94,-99.99,,,0.00,0.000000,,2013-02-28 10:01:00,
2013-02-28 03:32:00,15.0,13.0,-100.00,SE,128,1.0,5.0,93,-99.99,,,0.00,0.000000,,2013-02-28 10:32:00,
2013-02-28 03:42:00,15.0,13.0,-100.00,SE,128,1.0,5.0,93,-99.99,,,0.00,0.000000,,2013-02-28 10:42:00,
2013-02-28 03:52:00,15.0,13.0,-100.00,SE,128,1.0,5.0,93,-99.99,,,0.00,0.000000,,2013-02-28 10:52:00,
2013-02-28 04:01:00,15.0,13.0,-100.00,SE,128,1.0,5.0,93,-99.99,,,0.00,0.000000,,2013-02-28 11:01:00,
2013-02-28 04:32:00,15.0,14.0,-100.00,East,82,0.0,3.0,94,-99.99,,,0.00,0.000000,,2013-02-28 11:32:00,
2013-02-28 04:42:00,15.0,14.0,-100.00,East,82,0.0,3.0,94,-99.99,,,0.00,0.000000,,2013-02-28 11:42:00,
2013-02-28 04:52:00,15.0,14.0,-100.00,East,82,0.0,3.0,94,-99.99,,,0.00,0.000000,,2013-02-28 11:52:00,
2013-02-28 05:01:00,15.0,14.0,-100.00,East,82,0.0,3.0,94,-99.99,,,0.00,0.000000,,2013-02-28 12:01:00,
2013-02-28 05:32:00,16.0,14.0,-100.00,WSW,242,1.0,6.0,90,-99.99,,,0.00,0.000000,,2013-02-28 12:32:00,
2013-02-28 05:42:00,16.0,14.0,-100.00,WSW,242,1.0,6.0,90,-99.99,,,0.00,0.000000,,2013-02-28 12:42:00,
2013-02-28 05:52:00,16.0,14.0,-100.00,WSW,242,1.0,6.0,90,-99.99,,,0.00,0.000000,,2013-02-28 12:52:00,
2013-02-28 06:01:00,16.0,14.0,-100.00,WSW,242,1.0,6.0,90,-99.99,,,0.00,0.000000,,2013-02-28 13:01:00,
2013-02-28 06:32:00,16.0,14.0,-100.00,SW,235,1.0,6.0,90,-99.99,,,0.00,0.000000,,2013-02-28 13:32:00,
2013-02-28 07:22:00,16.0,14.0,-100.00,NE,39,1.0,3.0,91,-99.99,,,0.00,0.000000,,2013-02-28 14:22:00,
2013-02-28 07:32:00,16.0,14.0,-100.00,NE,39,1.0,3.0,91,-99.99,,,0.00,0.000000,,2013-02-28 14:32:00,
2013-02-28 07:42:00,16.0,14.0,-100.00,NE,39,1.0,3.0,91,-99.99,,,0.00,0.000000,,2013-02-28 14:42:00,
2013-02-28 07:52:00,16.0,14.0,-100.00,NE,39,1.0,3.0,91,-99.99,,,0.00,0.000000,,2013-02-28 14:52:00,
2013-02-28 08:01:00,16.0,14.0,-100.00,NE,39,1.0,3.0,91,-99.99,,,0.00,0.000000,,2013-02-28 15:01:00,
2013-02-28 08:32:00,17.0,15.0,-100.00,WSW,242,1.0,4.0,92,0.00,,,0.00,6.000000,,2013-02-28 15:32:00,
2013-02-28 08:42:00,17.0,15.0,-100.00,WSW,242,1.0,4.0,92,0.00,,,0.00,6.000000,,2013-02-28 15:42:00,
2013-02-28 08:52:00,17.0,15.0,-100.00,WSW,242,1.0,4.0,92,0.00,,,0.00,6.000000,,2013-02-28 15:52:00,
2013-02-28 09:01:00,17.0,15.0,-100.00,WSW,242,1.0,4.0,92,0.00,,,0.00,6.000000,,2013-02-28 16:01:00,
2013-02-28 09:22:00,21.0,17.0,-100.00,West,265,1.0,5.0,85,-99.99,,,0.00,36.000000,,2013-02-28 16:22:00,
2013-02-28 09:32:00,21.0,17.0,-100.00,West,265,1.0,5.0,85,-99.99,,,0.00,36.000000,,2013-02-28 16:32:00,
2013-02-28 10:32:00,24.0,19.0,-100.00,SW,222,3.0,6.0,80,0.00,,,0.00,65.000000,,2013-02-28 17:32:00,
2013-02-28 11:32:00,27.0,20.0,-100.00,SW,234,3.0,7.0,75,-99.99,,,0.00,101.000000,,2013-02-28 18:32:00,
2013-02-28 12:32:00,27.0,21.0,-100.00,SW,228,2.0,6.0,77,0.00,,,0.00,79.000000,,2013-02-28 19:32:00,
2013-02-28 12:42:00,27.0,21.0,-100.00,SW,228,2.0,6.0,77,0.00,,,0.00,79.000000,,2013-02-28 19:42:00,
2013-02-28 12:52:00,27.0,21.0,-100.00,SW,228,2.0,6.0,77,0.00,,,0.00,79.000000,,2013-02-28 19:52:00,
2013-02-28 13:01:00,27.0,21.0,-100.00,SW,228,2.0,6.0,77,0.00,,,0.00,79.000000,,2013-02-28 20:01:00,
2013-02-28 13:22:00,29.0,20.0,-100.00,SW,222,2.0,8.0,70,0.00,,,0.00,104.000000,,2013-02-28 20:22:00,
2013-02-28 13:32:00,29.0,20.0,-100.00,SW,222,2.0,8.0,70,0.00,,,0.00,104.000000,,2013-02-28 20:32:00,
2013-02-28 13:42:00,29.0,20.0,-100.00,SW,222,2.0,8.0,70,0.00,,,0.00,104.000000,,2013-02-28 20:42:00,
2013-02-28 13:52:00,29.0,20.0,-100.00,SW,222,2.0,8.0,70,0.00,,,0.00,104.000000,,2013-02-28 20:52:00,
2013-02-28 14:01:00,29.0,20.0,-100.00,SW,222,2.0,8.0,70,0.00,,,0.00,104.000000,,2013-02-28 21:01:00,
2013-02-28 14:32:00,29.0,20.0,-100.00,West,275,1.0,6.0,70,0.00,,,0.00,82.000000,,2013-02-28 21:32:00,
2013-02-28 14:42:00,29.0,20.0,-100.00,West,275,1.0,6.0,70,0.00,,,0.00,82.000000,,2013-02-28 21:42:00,
2013-02-28 14:52:00,29.0,20.0,-100.00,West,275,1.0,6.0,70,0.00,,,0.00,82.000000,,2013-02-28 21:52:00,
2013-02-28 15:01:00,29.0,20.0,-100.00,West,275,1.0,6.0,70,0.00,,,0.00,82.000000,,2013-02-28 22:01:00,
2013-02-28 15:22:00,29.0,21.0,-100.00,NW,304,1.0,6.0,73,0.00,,,0.00,64.000000,,2013-02-28 22:22:00,
2013-02-28 15:32:00,29.0,21.0,-100.00,NW,304,1.0,6.0,73,0.00,,,0.00,64.000000,,2013-02-28 22:32:00,
2013-02-28 15:42:00,29.0,21.0,-100.00,NW,304,1.0,6.0,73,0.00,,,0.00,64.000000,,2013-02-28 22:42:00,
2013-02-28 15:52:00,29.0,21.0,-100.00,NW,304,1.0,6.0,73,0.00,,,0.00,64.000000,,2013-02-28 22:52:00,
2013-02-28 16:01:00,29.0,21.0,-100.00,NW,304,1.0,6.0,73,0.00,,,0.00,64.000000,,2013-02-28 23:01:00,
2013-02-28 16:32:00,28.0,21.0,-100.00,WSW,248,2.0,8.0,74,0.00,,,0.00,57.000000,,2013-02-28 23:32:00,
2013-02-28 16:42:00,28.0,21.0,-100.00,WSW,248,2.0,8.0,74,0.00,,,0.00,57.000000,,2013-02-28 23:42:00,
2013-02-28 16:52:00,28.0,21.0,-100.00,WSW,248,2.0,8.0,74,0.00,,,0.00,57.000000,,2013-02-28 23:52:00,
2013-02-28 17:01:00,28.0,21.0,-100.00,WSW,248,2.0,8.0,74,0.00,,,0.00,57.000000,,2013-03-01 00:01:00,
2013-02-28 17:22:00,27.0,21.0,-100.00,West,269,0.0,5.0,78,0.00,,,0.00,33.000000,,2013-03-01 00:22:00,
2013-02-28 17:32:00,27.0,21.0,-100.00,West,269,0.0,5.0,78,0.00,,,0.00,33.000000,,2013-03-01 00:32:00,
2013-02-28 17:42:00,27.0,21.0,-100.00,West,269,0.0,5.0,78,0.00,,,0.00,33.000000,,2013-03-01 00:42:00,
2013-02-28 17:52:00,27.0,21.0,-100.00,West,269,0.0,5.0,78,0.00,,,0.00,33.000000,,2013-03-01 00:52:00,
2013-02-28 18:01:00,27.0,21.0,-100.00,West,269,0.0,5.0,78,0.00,,,0.00,33.000000,,2013-03-01 01:01:00,
2013-02-28 18:32:00,24.0,22.0,-100.00,WSW,252,0.0,2.0,91,0.00,,,0.00,7.000000,,2013-03-01 01:32:00,
2013-02-28 18:42:00,24.0,22.0,-100.00,WSW,252,0.0,2.0,91,0.00,,,0.00,7.000000,,2013-03-01 01:42:00,
2013-02-28 18:52:00,24.0,22.0,-100.00,WSW,252,0.0,2.0,91,0.00,,,0.00,7.000000,,2013-03-01 01:52:00,
2013-02-28 19:01:00,24.0,22.0,-100.00,WSW,252,0.0,2.0,91,0.00,,,0.00,7.000000,,2013-03-01 02:01:00,
2013-02-28 19:22:00,22.0,21.0,-100.00,NNW,327,0.0,1.0,96,0.00,,,0.00,0.000000,,2013-03-01 02:22:00,
2013-02-28 19:32:00,22.0,21.0,-100.00,NNW,327,0.0,1.0,96,0.00,,,0.00,0.000000,,2013-03-01 02:32:00,
2013-02-28 19:42:00,22.0,21.0,-100.00,NNW,327,0.0,1.0,96,0.00,,,0.00,0.000000,,2013-03-01 02:42:00,
2013-02-28 19:52:00,22.0,21.0,-100.00,NNW,327,0.0,1.0,96,0.00,,,0.00,0.000000,,2013-03-01 02:52:00,
2013-02-28 20:01:00,22.0,21.0,-100.00,NNW,327,0.0,1.0,96,0.00,,,0.00,0.000000,,2013-03-01 03:01:00,
2013-02-28 20:32:00,22.0,22.0,-100.00,WSW,252,0.0,1.0,98,0.00,,,0.00,0.000000,,2013-03-01 03:32:00,
2013-02-28 20:42:00,22.0,22.0,-100.00,WSW,252,0.0,1.0,98,0.00,,,0.00,0.000000,,2013-03-01 03:42:00,
2013-02-28 20:52:00,22.0,22.0,-100.00,WSW,252,0.0,1.0,98,0.00,,,0.00,0.000000,,2013-03-01 03:52:00,
2013-02-28 21:01:00,22.0,22.0,-100.00,WSW,252,0.0,1.0,98,0.00,,,0.00,0.000000,,2013-03-01 04:01:00,
2013-02-28 21:42:00,21.0,21.0,-100.00,ESE,122,0.0,1.0,98,0.00,,,0.00,0.000000,,2013-03-01 04:42:00,
2013-02-28 21:52:00,21.0,21.0,-100.00,ESE,122,0.0,1.0,98,0.00,,,0.00,0.000000,,2013-03-01 04:52:00,
2013-02-28 22:01:00,21.0,21.0,-100.00,ESE,122,0.0,1.0,98,0.00,,,0.00,0.000000,,2013-03-01 05:01:00,
2013-02-28 22:33:00,21.0,21.0,-100.00,ENE,59,0.0,2.0,98,0.00,,,0.00,0.000000,,2013-03-01 05:33:00,
2013-02-28 22:42:00,21.0,21.0,-100.00,ENE,59,0.0,2.0,98,0.00,,,0.00,0.000000,,2013-03-01 05:42:00,
2013-02-28 22:52:00,21.0,21.0,-100.00,ENE,59,0.0,2.0,98,0.00,,,0.00,0.000000,,2013-03-01 05:52:00,
2013-02-28 23:01:00,21.0,21.0,-100.00,ENE,59,0.0,2.0,98,0.00,,,0.00,0.000000,,2013-03-01 06:01:00,
2013-02-28 23:32:00,21.0,21.0,-100.00,North,355,0.0,1.0,98,0.00,,,0.00,0.000000,,2013-03-01 06:32:00,
2013-02-28 23:42:00,21.0,21.0,-100.00,North,355,0.0,1.0,98,0.00,,,0.00,0.000000,,2013-03-01 06:42:00,
2013-02-28 23:52:00,21.0,21.0,-100.00,North,355,0.0,1.0,98,0.00,,,0.00,0.000000,,2013-03-01 06:52:00,